Time;durP1;ratioP1;P1;durP2;ratioP2;P2;SDS_P1;SDS_P2;PMS_P1;PMS_P2;Temp;Humidity;BMP_temperature;BMP_pressure;BME280_temperature;BME280_humidity;BME280_pressure;Samples;Min_cycle;Max_cycle;Signal;HPM_P1;HPM_P2
2023/07/23 00:00:32;;;;;;;8.98;5.63;;;19.50;99.90;;;;;;5072201;28;20403;-72
2023/07/23 00:02:58;;;;;;;9.85;6.47;;;19.40;99.90;;;;;;5053929;28;20056;-72
2023/07/23 00:05:24;;;;;;;8.07;6.38;;;19.40;99.90;;;;;;5052435;28;20470;-72
2023/07/23 00:07:56;;;;;;;7.68;5.70;;;19.20;99.90;;;;;;5051719;28;20039;-72
2023/07/23 00:10:22;;;;;;;7.57;5.65;;;19.30;99.90;;;;;;5052275;28;20101;-72
2023/07/23 00:12:47;;;;;;;9.77;5.72;;;19.20;99.90;;;;;;5051569;28;20632;-72
2023/07/23 00:15:13;;;;;;;11.75;5.85;;;19.20;99.90;;;;;;5051205;28;20028;-72
2023/07/23 00:17:40;;;;;;;6.45;5.35;;;19.20;99.90;;;;;;5052460;28;20035;-72
2023/07/23 00:20:10;;;;;;;6.45;5.13;;;19.30;99.90;;;;;;5052170;28;20028;-71
2023/07/23 00:22:37;;;;;;;11.93;5.30;;;19.20;99.90;;;;;;5052359;28;20028;-72
2023/07/23 00:25:03;;;;;;;8.60;5.75;;;19.20;99.90;;;;;;5052369;28;20025;-72
2023/07/23 00:27:29;;;;;;;10.70;5.78;;;19.20;99.90;;;;;;5052377;28;20100;-71
2023/07/23 00:29:56;;;;;;;9.88;6.05;;;19.10;99.90;;;;;;5052186;28;20049;-72
2023/07/23 00:32:22;;;;;;;8.10;5.45;;;19.20;99.90;;;;;;5052120;28;20064;-71
2023/07/23 00:34:47;;;;;;;8.82;5.38;;;19.10;99.90;;;;;;5052246;28;20498;-71
2023/07/23 00:37:13;;;;;;;12.02;6.03;;;19.10;99.90;;;;;;5057147;28;20119;-71
2023/07/23 00:39:39;;;;;;;9.75;5.90;;;19.10;99.90;;;;;;5072077;28;20525;-72
2023/07/23 00:42:05;;;;;;;10.48;5.75;;;19.20;99.90;;;;;;5071673;28;20037;-71
2023/07/23 00:44:30;;;;;;;9.52;5.68;;;19.10;99.90;;;;;;5072128;28;20185;-71
2023/07/23 00:46:58;;;;;;;10.77;4.97;;;19.20;99.90;;;;;;5072308;28;20170;-71
2023/07/23 00:49:24;;;;;;;9.10;5.25;;;19.10;99.90;;;;;;5072064;28;20016;-71
2023/07/23 00:51:52;;;;;;;7.57;4.97;;;19.10;99.90;;;;;;5071928;28;20102;-72
2023/07/23 00:54:18;;;;;;;7.45;5.70;;;19.10;99.90;;;;;;5071860;28;20596;-72
2023/07/23 00:56:46;;;;;;;7.00;5.50;;;18.90;99.90;;;;;;5071042;28;20543;-71
2023/07/23 00:59:12;;;;;;;6.30;5.10;;;19.00;99.90;;;;;;5072206;28;20048;-71
2023/07/23 01:01:38;;;;;;;7.72;5.13;;;18.90;99.90;;;;;;5064995;28;20547;-72
2023/07/23 01:04:04;;;;;;;13.20;6.05;;;19.00;99.90;;;;;;5051590;28;20025;-71
2023/07/23 01:06:32;;;;;;;11.38;6.22;;;19.00;99.90;;;;;;5051926;28;20021;-71
2023/07/23 01:08:59;;;;;;;7.13;5.20;;;18.90;99.90;;;;;;5052005;28;20018;-71
2023/07/23 01:11:27;;;;;;;7.53;5.65;;;18.90;99.90;;;;;;5050937;28;20060;-72
2023/07/23 01:13:55;;;;;;;8.00;5.57;;;18.80;99.90;;;;;;5052618;28;20035;-72
2023/07/23 01:16:22;;;;;;;9.00;5.82;;;18.80;99.90;;;;;;5055497;28;20526;-71
2023/07/23 01:18:48;;;;;;;7.00;5.63;;;18.90;99.90;;;;;;5055654;28;20025;-71
2023/07/23 01:21:17;;;;;;;9.68;5.70;;;18.90;99.90;;;;;;5053817;28;20393;-71
2023/07/23 01:23:43;;;;;;;9.48;6.20;;;18.80;99.90;;;;;;5054878;28;20025;-72
2023/07/23 01:26:10;;;;;;;7.93;5.70;;;18.80;99.90;;;;;;5055146;28;20100;-72
2023/07/23 01:28:36;;;;;;;13.32;6.40;;;18.80;99.90;;;;;;5055277;28;20420;-71
2023/07/23 01:31:02;;;;;;;12.05;6.53;;;18.70;99.90;;;;;;5054637;28;20032;-71
2023/07/23 01:33:29;;;;;;;8.00;5.60;;;18.70;99.90;;;;;;5055178;28;20485;-71
2023/07/23 01:35:57;;;;;;;6.72;5.78;;;18.70;99.90;;;;;;5055248;28;20064;-71
2023/07/23 01:38:23;;;;;;;10.02;6.82;;;18.70;99.90;;;;;;5055012;28;20025;-71
2023/07/23 01:40:49;;;;;;;9.52;5.88;;;18.70;99.90;;;;;;5054544;28;20111;-72
2023/07/23 01:43:16;;;;;;;14.77;6.63;;;18.70;99.90;;;;;;5055034;28;20020;-71
2023/07/23 01:45:44;;;;;;;10.05;6.45;;;18.70;99.90;;;;;;5055070;28;20158;-71
2023/07/23 01:48:10;;;;;;;6.65;5.95;;;18.70;99.90;;;;;;5055279;28;20471;-71
2023/07/23 01:50:36;;;;;;;12.68;6.38;;;18.70;99.90;;;;;;5054496;28;20366;-71
2023/07/23 01:53:01;;;;;;;8.27;5.65;;;18.80;99.90;;;;;;5054776;28;20028;-71
2023/07/23 01:55:27;;;;;;;7.47;5.65;;;18.70;99.90;;;;;;5054711;28;20028;-72
2023/07/23 01:57:53;;;;;;;9.02;7.13;;;18.70;99.90;;;;;;5054264;28;20036;-71
2023/07/23 02:00:21;;;;;;;10.35;6.90;;;18.70;99.90;;;;;;5054801;28;20029;-74
2023/07/23 02:02:47;;;;;;;9.98;6.85;;;18.70;99.90;;;;;;5054655;28;20025;-72
2023/07/23 02:05:17;;;;;;;9.27;6.78;;;18.60;99.90;;;;;;5054814;28;20021;-73
2023/07/23 02:07:43;;;;;;;13.30;7.85;;;18.70;99.90;;;;;;5054455;28;20021;-71
2023/07/23 02:10:10;;;;;;;9.68;7.30;;;18.70;99.90;;;;;;5054081;28;20021;-71
2023/07/23 02:12:36;;;;;;;7.43;6.28;;;18.70;99.90;;;;;;5054366;28;20032;-72
2023/07/23 02:15:03;;;;;;;9.00;6.80;;;18.70;99.90;;;;;;5054538;28;20097;-71
2023/07/23 02:17:29;;;;;;;9.23;6.97;;;18.70;99.90;;;;;;5054102;28;20025;-72
2023/07/23 02:19:54;;;;;;;7.78;6.15;;;18.70;99.90;;;;;;5054486;28;20078;-72
2023/07/23 02:22:20;;;;;;;8.43;6.25;;;18.70;99.90;;;;;;5054418;28;20029;-71
2023/07/23 02:24:46;;;;;;;17.20;7.43;;;18.70;99.90;;;;;;5053015;28;20032;-71
2023/07/23 02:27:13;;;;;;;10.40;6.38;;;18.70;99.90;;;;;;5053571;28;20021;-72
2023/07/23 02:29:38;;;;;;;10.63;7.20;;;18.70;99.90;;;;;;5054187;28;20033;-71
2023/07/23 02:32:06;;;;;;;9.38;6.60;;;18.80;99.90;;;;;;5054182;28;20070;-72
2023/07/23 02:34:32;;;;;;;10.50;6.40;;;18.70;99.90;;;;;;5054355;28;20481;-71
2023/07/23 02:36:57;;;;;;;10.20;6.85;;;18.70;99.90;;;;;;5053812;28;20033;-71
2023/07/23 02:39:23;;;;;;;6.80;5.75;;;18.70;99.90;;;;;;5053888;28;20485;-71
2023/07/23 02:41:48;;;;;;;8.85;6.28;;;18.70;99.90;;;;;;5053571;28;20494;-71
2023/07/23 02:44:14;;;;;;;9.40;6.10;;;18.70;99.90;;;;;;5053585;28;20017;-72
2023/07/23 02:46:40;;;;;;;8.63;5.95;;;18.70;99.90;;;;;;5054011;28;20037;-71
2023/07/23 02:49:05;;;;;;;10.35;5.57;;;18.70;99.90;;;;;;5053302;28;20021;-72
2023/07/23 02:51:31;;;;;;;6.88;5.50;;;18.70;99.90;;;;;;5053430;28;20142;-72
2023/07/23 02:53:57;;;;;;;9.15;5.80;;;18.60;99.90;;;;;;5053514;28;20575;-72
2023/07/23 02:56:23;;;;;;;7.00;5.35;;;18.70;99.90;;;;;;5053660;28;20426;-72
2023/07/23 02:58:48;;;;;;;7.57;5.72;;;18.60;99.90;;;;;;5053153;28;20108;-71
2023/07/23 03:01:14;;;;;;;5.88;5.28;;;18.60;99.90;;;;;;5052308;28;20044;-71
2023/07/23 03:03:40;;;;;;;8.00;5.40;;;18.70;99.90;;;;;;5053658;28;20477;-71
2023/07/23 03:06:06;;;;;;;8.77;5.82;;;18.70;99.90;;;;;;5053436;28;20029;-71
2023/07/23 03:08:32;;;;;;;6.57;5.35;;;18.70;99.90;;;;;;5051436;28;20416;-72
2023/07/23 03:10:57;;;;;;;5.55;5.00;;;18.70;99.90;;;;;;5052655;28;20094;-72
2023/07/23 03:13:23;;;;;;;8.88;6.30;;;18.70;99.90;;;;;;5053217;28;20041;-73
2023/07/23 03:15:49;;;;;;;7.57;5.25;;;18.70;99.90;;;;;;5052563;28;20082;-71
2023/07/23 03:18:15;;;;;;;7.57;5.20;;;18.60;99.90;;;;;;5053260;28;20025;-72
2023/07/23 03:20:40;;;;;;;10.73;5.30;;;18.70;99.90;;;;;;5053282;28;20104;-73
2023/07/23 03:23:06;;;;;;;8.38;5.20;;;18.70;99.90;;;;;;5052899;28;20052;-72
2023/07/23 03:25:32;;;;;;;5.93;4.65;;;18.70;99.90;;;;;;5053126;28;20531;-75
2023/07/23 03:27:59;;;;;;;5.25;4.70;;;18.70;99.90;;;;;;5052837;28;20104;-75
2023/07/23 03:30:26;;;;;;;5.60;5.00;;;18.70;99.90;;;;;;5053240;28;20484;-75
2023/07/23 03:32:52;;;;;;;6.75;4.90;;;18.70;99.90;;;;;;5053202;28;20017;-75
2023/07/23 03:35:19;;;;;;;6.68;4.85;;;18.70;99.90;;;;;;5052934;28;20533;-75
2023/07/23 03:37:45;;;;;;;7.43;4.22;;;18.70;99.90;;;;;;5052990;28;20078;-73
2023/07/23 03:40:11;;;;;;;9.05;4.72;;;18.60;99.90;;;;;;5052559;28;20025;-72
2023/07/23 03:42:37;;;;;;;6.40;4.15;;;18.70;99.90;;;;;;5052854;28;20029;-73
2023/07/23 03:45:03;;;;;;;7.15;4.30;;;18.70;99.90;;;;;;5052883;28;20104;-72
2023/07/23 03:47:29;;;;;;;9.95;4.28;;;18.80;99.90;;;;;;5052601;28;20078;-76
2023/07/23 03:49:54;;;;;;;6.03;3.92;;;18.80;99.90;;;;;;5052591;28;20100;-73
2023/07/23 03:52:21;;;;;;;7.65;4.20;;;18.80;99.90;;;;;;5052598;28;20033;-73
2023/07/23 03:54:47;;;;;;;7.75;4.00;;;18.80;99.90;;;;;;5052759;28;20532;-73
2023/07/23 03:57:13;;;;;;;9.02;4.80;;;18.80;99.90;;;;;;5052852;28;20036;-75
2023/07/23 03:59:40;;;;;;;9.23;3.88;;;18.90;99.90;;;;;;5051591;28;20047;-75
2023/07/23 04:02:07;;;;;;;6.03;4.50;;;18.80;99.90;;;;;;5052337;28;20044;-72
2023/07/23 04:04:34;;;;;;;9.55;4.35;;;18.80;99.90;;;;;;5052326;28;20076;-72
2023/07/23 04:06:59;;;;;;;6.97;3.83;;;18.80;99.90;;;;;;5051972;28;20470;-73
2023/07/23 04:09:25;;;;;;;6.35;3.80;;;18.80;99.90;;;;;;5052515;28;20057;-75
2023/07/23 04:11:51;;;;;;;7.20;3.83;;;18.80;99.90;;;;;;5051773;28;20382;-74
2023/07/23 04:14:17;;;;;;;5.32;3.88;;;18.80;99.90;;;;;;5052482;28;20092;-74
2023/07/23 04:16:42;;;;;;;11.48;4.20;;;18.90;99.90;;;;;;5052113;28;20503;-74
2023/07/23 04:19:08;;;;;;;8.73;3.80;;;18.90;99.90;;;;;;5050417;28;20052;-72
2023/07/23 04:21:34;;;;;;;7.90;4.47;;;18.80;99.90;;;;;;5052074;28;20029;-73
2023/07/23 04:24:00;;;;;;;13.35;3.75;;;18.90;99.90;;;;;;5052447;28;20025;-73
2023/07/23 04:26:28;;;;;;;9.30;3.78;;;18.90;99.90;;;;;;5052000;28;20036;-75
2023/07/23 04:28:54;;;;;;;4.53;3.70;;;18.90;99.90;;;;;;5053449;28;20021;-72
2023/07/23 04:31:19;;;;;;;5.78;3.85;;;18.80;99.90;;;;;;5060460;28;20354;-73
2023/07/23 04:33:46;;;;;;;8.00;4.32;;;18.90;99.90;;;;;;5072369;28;20462;-75
2023/07/23 04:36:13;;;;;;;5.45;3.58;;;18.90;99.90;;;;;;5071758;28;20028;-75
2023/07/23 04:38:40;;;;;;;4.97;4.32;;;18.90;99.90;;;;;;5071576;28;20484;-73
2023/07/23 04:41:06;;;;;;;5.97;4.50;;;18.90;99.90;;;;;;5071637;28;20032;-74
2023/07/23 04:43:32;;;;;;;5.82;4.35;;;18.90;99.90;;;;;;5071697;28;20111;-75
2023/07/23 04:45:58;;;;;;;5.60;3.38;;;18.90;99.90;;;;;;5071477;28;20380;-73
2023/07/23 04:48:24;;;;;;;6.13;4.00;;;19.00;99.90;;;;;;5071283;28;20104;-74
2023/07/23 04:51:03;;;;;;;6.18;4.07;;;19.00;99.90;;;;;;5075426;28;20013;-75
2023/07/23 04:53:29;;;;;;;7.63;4.32;;;19.00;99.90;;;;;;5076185;28;20537;-74
2023/07/23 04:55:56;;;;;;;5.40;3.20;;;19.00;99.90;;;;;;5075670;28;20028;-72
2023/07/23 04:58:22;;;;;;;7.22;3.78;;;19.00;99.90;;;;;;5075369;28;20044;-73
2023/07/23 05:00:48;;;;;;;7.55;3.95;;;19.00;99.90;;;;;;5075724;28;20055;-72
2023/07/23 05:03:14;;;;;;;6.20;3.55;;;19.00;99.90;;;;;;5055331;28;20061;-74
2023/07/23 05:05:44;;;;;;;5.05;3.30;;;19.00;99.90;;;;;;5058950;28;20025;-74
2023/07/23 05:08:10;;;;;;;6.03;3.78;;;19.10;99.90;;;;;;5066690;28;20083;-73
2023/07/23 05:10:36;;;;;;;5.57;3.58;;;19.10;99.90;;;;;;5075392;28;20563;-75
2023/07/23 05:13:02;;;;;;;5.60;3.20;;;19.10;99.90;;;;;;5074872;28;20043;-74
2023/07/23 05:15:27;;;;;;;5.43;3.50;;;19.10;99.90;;;;;;5071464;28;20536;-73
2023/07/23 05:17:53;;;;;;;8.27;3.78;;;19.10;99.90;;;;;;5038079;28;20077;-73
2023/07/23 05:20:19;;;;;;;6.35;4.10;;;19.10;99.90;;;;;;5035456;28;20021;-73
2023/07/23 05:22:44;;;;;;;6.60;4.13;;;19.20;99.90;;;;;;5033555;28;20448;-72
2023/07/23 05:25:10;;;;;;;7.97;4.18;;;19.10;99.90;;;;;;5035557;28;20025;-73
2023/07/23 05:27:38;;;;;;;8.50;3.53;;;19.10;99.90;;;;;;5035284;28;20105;-74
2023/07/23 05:30:04;;;;;;;5.63;3.60;;;19.20;99.90;;;;;;5057998;28;20020;-73
2023/07/23 05:32:30;;;;;;;6.43;3.97;;;19.10;99.90;;;;;;5055097;28;20044;-72
2023/07/23 05:34:56;;;;;;;4.28;3.03;;;19.10;99.90;;;;;;5055109;28;20021;-72
2023/07/23 05:37:23;;;;;;;6.40;3.40;;;19.10;99.90;;;;;;5064166;28;20590;-72
2023/07/23 05:39:49;;;;;;;3.97;3.20;;;19.00;99.90;;;;;;5070066;28;20017;-74
2023/07/23 05:42:15;;;;;;;4.13;3.72;;;19.00;99.90;;;;;;5073289;28;20032;-74
2023/07/23 05:44:40;;;;;;;3.78;3.20;;;19.10;99.90;;;;;;5069638;28;20035;-72
2023/07/23 05:47:07;;;;;;;7.50;3.50;;;19.00;99.90;;;;;;5054404;28;20139;-72
2023/07/23 05:49:32;;;;;;;3.63;3.33;;;19.00;99.90;;;;;;5054130;28;20021;-73
2023/07/23 05:51:59;;;;;;;5.53;3.67;;;19.10;99.90;;;;;;5054615;28;20158;-72
2023/07/23 05:54:25;;;;;;;7.47;3.67;;;19.00;99.90;;;;;;5064171;28;20618;-72
2023/07/23 05:56:51;;;;;;;6.45;3.95;;;19.00;99.90;;;;;;5068771;28;20039;-74
2023/07/23 05:59:16;;;;;;;4.35;3.95;;;19.00;99.90;;;;;;5053022;28;20103;-74
2023/07/23 06:01:42;;;;;;;5.07;3.80;;;19.00;99.90;;;;;;5053064;28;20067;-73
2023/07/23 06:04:08;;;;;;;6.93;3.97;;;19.00;99.90;;;;;;5054609;28;20028;-74
2023/07/23 06:06:34;;;;;;;5.45;3.78;;;19.10;99.90;;;;;;5054203;28;20033;-74
2023/07/23 06:09:00;;;;;;;4.07;3.45;;;19.00;99.90;;;;;;5054216;28;20036;-75
2023/07/23 06:11:25;;;;;;;7.78;4.30;;;19.10;99.90;;;;;;5053743;28;20133;-74
2023/07/23 06:13:51;;;;;;;7.95;4.15;;;19.10;99.90;;;;;;5053838;28;20412;-75
2023/07/23 06:16:16;;;;;;;4.28;3.88;;;19.10;99.90;;;;;;5044266;28;20394;-76
2023/07/23 06:18:42;;;;;;;6.85;3.65;;;19.10;99.90;;;;;;5034449;28;20025;-75
2023/07/23 06:21:08;;;;;;;7.22;4.30;;;19.10;99.90;;;;;;5032640;28;20024;-75
2023/07/23 06:23:34;;;;;;;5.43;4.30;;;19.00;99.90;;;;;;5031747;28;20036;-74
2023/07/23 06:26:00;;;;;;;5.85;4.30;;;19.00;99.90;;;;;;5033981;28;20032;-74
2023/07/23 06:28:26;;;;;;;4.38;3.97;;;19.00;99.90;;;;;;5034808;28;20030;-74
2023/07/23 06:30:53;;;;;;;8.82;4.03;;;19.10;99.90;;;;;;5053418;28;20528;-75
2023/07/23 06:33:20;;;;;;;6.93;4.43;;;19.10;99.90;;;;;;5053851;28;20155;-74
2023/07/23 06:35:46;;;;;;;6.18;3.92;;;19.00;99.90;;;;;;5057102;28;20024;-74
2023/07/23 06:38:13;;;;;;;8.40;3.72;;;19.00;99.90;;;;;;5053329;28;20017;-75
2023/07/23 06:40:53;;;;;;;7.13;4.35;;;19.00;99.90;;;;;;5053534;28;20025;-74
2023/07/23 06:43:21;;;;;;;6.60;3.92;;;18.90;99.90;;;;;;5052311;28;20029;-74
2023/07/23 06:45:49;;;;;;;8.15;4.25;;;19.00;99.90;;;;;;5051631;28;20021;-75
2023/07/23 06:48:17;;;;;;;4.75;3.92;;;19.00;99.90;;;;;;5053751;28;20025;-75
2023/07/23 06:50:45;;;;;;;7.30;4.22;;;19.00;99.90;;;;;;5053580;28;20032;-75
2023/07/23 06:53:10;;;;;;;6.78;4.63;;;19.10;99.90;;;;;;5052791;28;20036;-75
2023/07/23 06:55:57;;;;;;;7.50;4.75;;;19.10;99.90;;;;;;5072926;28;20024;-76
2023/07/23 06:58:23;;;;;;;8.43;4.50;;;19.10;99.90;;;;;;5056947;28;20029;-74
2023/07/23 07:00:49;;;;;;;7.18;4.55;;;19.10;99.90;;;;;;5051334;28;20520;-75
2023/07/23 07:03:14;;;;;;;7.97;4.97;;;19.10;99.90;;;;;;5053634;28;20079;-75
2023/07/23 07:05:40;;;;;;;5.75;4.32;;;19.10;99.90;;;;;;5053564;28;20029;-77
2023/07/23 07:08:05;;;;;;;10.10;4.70;;;19.10;99.90;;;;;;5048199;28;20025;-78
2023/07/23 07:10:31;;;;;;;7.75;4.75;;;19.10;99.90;;;;;;5053047;28;20540;-77
2023/07/23 07:12:57;;;;;;;6.82;4.50;;;19.20;99.90;;;;;;5051729;28;20044;-77
2023/07/23 07:15:22;;;;;;;5.45;4.53;;;19.00;99.90;;;;;;5052944;28;20382;-78
2023/07/23 07:17:48;;;;;;;6.18;4.53;;;19.10;99.90;;;;;;5053092;28;20033;-75
2023/07/23 07:20:14;;;;;;;7.38;4.60;;;19.20;99.90;;;;;;5053164;28;20378;-75
2023/07/23 07:22:39;;;;;;;5.45;4.47;;;19.10;99.90;;;;;;5051840;28;20039;-77
2023/07/23 07:25:05;;;;;;;7.22;4.45;;;19.00;99.90;;;;;;5052984;28;20101;-76
2023/07/23 07:27:31;;;;;;;8.23;4.78;;;18.80;99.90;;;;;;5052996;28;20061;-76
2023/07/23 07:29:57;;;;;;;5.13;4.63;;;18.80;99.90;;;;;;5051013;28;20059;-75
2023/07/23 07:32:22;;;;;;;7.35;4.47;;;18.60;99.90;;;;;;5044211;28;20029;-75
2023/07/23 07:34:48;;;;;;;6.78;4.50;;;18.60;99.90;;;;;;5040916;28;20017;-76
2023/07/23 07:37:14;;;;;;;6.65;4.70;;;18.60;99.90;;;;;;5042821;28;20040;-74
2023/07/23 07:39:40;;;;;;;7.07;5.07;;;18.70;99.90;;;;;;5042288;28;20371;-75
2023/07/23 07:42:07;;;;;;;5.85;4.75;;;18.80;99.90;;;;;;5049771;28;20075;-76
2023/07/23 07:44:32;;;;;;;8.77;5.40;;;18.80;99.90;;;;;;5049114;28;20033;-75
2023/07/23 07:46:58;;;;;;;7.97;5.55;;;18.70;99.90;;;;;;5046872;28;20025;-75
2023/07/23 07:49:24;;;;;;;9.10;5.18;;;18.70;99.90;;;;;;5048312;28;20449;-76
2023/07/23 07:51:50;;;;;;;6.18;4.53;;;18.70;99.90;;;;;;5040901;28;20025;-77
2023/07/23 07:54:16;;;;;;;9.25;4.97;;;18.50;99.90;;;;;;5040991;28;20032;-77
2023/07/23 07:56:43;;;;;;;8.75;5.53;;;18.50;99.90;;;;;;5041412;28;20421;-77
2023/07/23 07:59:11;;;;;;;6.80;5.25;;;18.50;99.90;;;;;;5041032;28;20017;-77
2023/07/23 08:01:37;;;;;;;5.82;5.03;;;18.60;99.90;;;;;;5042738;28;20053;-75
2023/07/23 08:04:07;;;;;;;7.07;5.30;;;18.60;99.90;;;;;;5037040;28;20056;-75
2023/07/23 08:06:34;;;;;;;7.00;5.28;;;18.60;99.90;;;;;;5050396;28;20036;-74
2023/07/23 08:09:02;;;;;;;7.55;5.32;;;18.60;99.90;;;;;;5052198;28;20078;-75
2023/07/23 08:11:29;;;;;;;6.65;5.13;;;18.60;99.90;;;;;;5051356;28;20136;-75
2023/07/23 08:13:56;;;;;;;8.32;5.88;;;18.60;99.90;;;;;;5041954;28;20032;-74
2023/07/23 08:16:22;;;;;;;8.68;5.47;;;18.50;99.90;;;;;;5048386;28;20033;-75
2023/07/23 08:18:47;;;;;;;8.52;5.78;;;18.60;99.90;;;;;;5051055;28;20028;-75
2023/07/23 08:21:14;;;;;;;10.15;5.75;;;18.50;99.90;;;;;;5049885;28;20021;-75
2023/07/23 08:23:40;;;;;;;7.90;5.53;;;18.60;99.90;;;;;;5049872;28;20033;-75
2023/07/23 08:26:07;;;;;;;7.10;5.43;;;18.50;99.90;;;;;;5051615;28;20029;-75
2023/07/23 08:28:41;;;;;;;5.95;5.15;;;18.50;99.90;;;;;;5052083;28;20021;-75
2023/07/23 08:31:07;;;;;;;7.80;5.15;;;18.40;99.90;;;;;;5049076;28;20017;-75
2023/07/23 08:33:33;;;;;;;6.70;5.43;;;18.40;99.90;;;;;;5051413;28;20104;-75
2023/07/23 08:36:00;;;;;;;8.30;5.30;;;18.30;99.90;;;;;;5051778;28;20497;-75
2023/07/23 08:38:26;;;;;;;6.85;5.75;;;18.40;99.90;;;;;;5050842;28;20072;-75
2023/07/23 08:41:01;;;;;;;6.35;5.32;;;18.40;99.90;;;;;;5050749;28;20032;-75
2023/07/23 08:43:32;;;;;;;5.13;4.63;;;18.60;99.90;;;;;;5051934;28;20033;-74
2023/07/23 08:46:24;;;;;;;6.10;4.65;;;18.50;99.90;;;;;;5051478;28;20155;-74
2023/07/23 08:49:06;;;;;;;4.93;4.18;;;18.40;99.90;;;;;;5050530;28;20377;-75
2023/07/23 08:51:40;;;;;;;4.88;4.15;;;18.40;99.90;;;;;;5039683;28;20094;-74
2023/07/23 08:54:06;;;;;;;5.97;4.13;;;18.40;99.90;;;;;;5034081;28;20079;-74
2023/07/23 08:56:37;;;;;;;5.38;4.20;;;18.40;99.90;;;;;;5032767;28;20029;-74
2023/07/23 08:59:04;;;;;;;5.68;4.57;;;18.50;99.90;;;;;;5030909;28;20030;-73
2023/07/23 09:01:39;;;;;;;4.75;4.35;;;18.60;99.90;;;;;;5047706;28;20013;-74
2023/07/23 09:04:10;;;;;;;5.38;4.10;;;18.70;99.90;;;;;;5045324;28;20029;-77
2023/07/23 09:06:36;;;;;;;8.33;4.53;;;18.80;99.90;;;;;;5050990;28;20017;-73
2023/07/23 09:09:06;;;;;;;5.60;4.03;;;18.70;99.90;;;;;;5051060;28;20778;-75
2023/07/23 09:11:32;;;;;;;4.55;4.00;;;18.70;99.90;;;;;;5049924;28;20548;-75
2023/07/23 09:14:08;;;;;;;4.72;3.70;;;18.70;99.90;;;;;;5049566;28;20029;-74
2023/07/23 09:16:41;;;;;;;4.40;4.00;;;18.70;99.90;;;;;;5051090;28;20029;-74
2023/07/23 09:19:10;;;;;;;4.53;4.07;;;18.80;99.90;;;;;;5050653;28;20044;-75
2023/07/23 09:21:38;;;;;;;5.97;3.80;;;18.80;99.90;;;;;;5051264;28;20033;-75
2023/07/23 09:24:06;;;;;;;5.45;4.70;;;18.80;99.90;;;;;;5052213;28;20025;-75
2023/07/23 09:26:32;;;;;;;4.25;3.85;;;18.70;99.90;;;;;;5052488;28;20032;-76
2023/07/23 09:28:59;;;;;;;4.82;4.43;;;18.80;99.90;;;;;;5051159;28;20075;-75
2023/07/23 09:31:31;;;;;;;5.00;4.50;;;18.90;99.90;;;;;;5049785;28;20381;-75
2023/07/23 09:34:02;;;;;;;5.25;4.75;;;19.00;99.90;;;;;;5051377;28;20021;-75
2023/07/23 09:36:29;;;;;;;3.90;3.55;;;19.00;99.90;;;;;;5053939;28;20028;-75
2023/07/23 09:39:13;;;;;;;5.70;4.88;;;19.00;99.90;;;;;;5054856;28;20017;-75
2023/07/23 09:41:39;;;;;;;5.47;4.53;;;18.90;99.90;;;;;;5054268;28;20064;-75
2023/07/23 09:44:08;;;;;;;6.60;3.95;;;18.90;99.90;;;;;;5054362;28;20029;-76
2023/07/23 09:46:35;;;;;;;4.00;3.67;;;18.90;99.90;;;;;;5054913;28;20535;-74
2023/07/23 09:49:01;;;;;;;4.80;3.72;;;19.10;99.90;;;;;;5054808;28;20032;-74
2023/07/23 09:51:26;;;;;;;5.28;4.28;;;19.10;99.90;;;;;;5053675;28;20394;-74
2023/07/23 09:53:53;;;;;;;5.93;4.43;;;19.00;99.90;;;;;;5052745;28;20093;-74
2023/07/23 09:56:20;;;;;;;5.10;3.90;;;19.10;99.90;;;;;;5054365;28;20481;-74
2023/07/23 09:58:48;;;;;;;4.90;3.97;;;19.20;99.90;;;;;;5052290;28;20024;-75
2023/07/23 10:01:18;;;;;;;4.47;4.07;;;19.20;99.90;;;;;;5054137;28;20147;-76
2023/07/23 10:03:48;;;;;;;4.25;3.85;;;19.20;99.90;;;;;;5053866;28;20753;-78
2023/07/23 10:06:20;;;;;;;3.95;3.65;;;19.10;99.90;;;;;;5053688;28;20036;-73
2023/07/23 10:08:47;;;;;;;4.90;4.10;;;19.10;99.90;;;;;;5053965;28;20028;-77
2023/07/23 10:11:13;;;;;;;4.72;4.28;;;19.20;99.90;;;;;;5053708;28;20123;-77
2023/07/23 10:13:41;;;;;;;4.20;3.78;;;19.20;99.90;;;;;;5047389;28;20028;-76
2023/07/23 10:16:15;;;;;;;3.92;3.40;;;19.10;99.90;;;;;;5045154;28;20025;-75
2023/07/23 10:18:42;;;;;;;3.55;2.97;;;19.10;99.90;;;;;;5054003;28;20029;-76
2023/07/23 10:21:10;;;;;;;3.10;2.90;;;19.10;99.90;;;;;;5053859;28;20028;-76
2023/07/23 10:23:40;;;;;;;3.50;3.00;;;19.00;99.90;;;;;;5051838;28;20032;-77
2023/07/23 10:26:29;;;;;;;3.78;3.40;;;19.20;99.90;;;;;;5042773;28;20093;-76
2023/07/23 10:29:12;;;;;;;3.47;3.17;;;19.20;99.90;;;;;;5043757;28;20052;-76
2023/07/23 10:31:39;;;;;;;4.05;3.45;;;19.20;99.90;;;;;;5044435;28;20021;-75
2023/07/23 10:34:37;;;;;;;3.40;3.10;;;19.20;99.90;;;;;;5044822;28;20209;-75
2023/07/23 10:37:18;;;;;;;3.95;3.00;;;19.20;99.90;;;;;;5030402;28;20048;-76
2023/07/23 10:39:48;;;;;;;5.85;3.05;;;19.20;99.90;;;;;;5052682;28;20017;-76
2023/07/23 10:42:39;;;;;;;3.50;3.20;;;19.20;99.90;;;;;;5041513;28;20026;-75
2023/07/23 10:45:24;;;;;;;4.95;3.00;;;19.10;99.90;;;;;;5025986;28;20033;-75
2023/07/23 10:47:58;;;;;;;3.40;3.10;;;19.20;99.90;;;;;;5032513;28;20018;-75
2023/07/23 10:50:24;;;;;;;3.25;2.90;;;19.30;99.90;;;;;;5033861;28;20022;-75
2023/07/23 10:53:03;;;;;;;3.78;2.95;;;19.20;99.90;;;;;;5032784;28;20355;-75
2023/07/23 10:55:45;;;;;;;3.15;2.85;;;19.20;99.90;;;;;;5033918;28;20535;-75
2023/07/23 10:58:13;;;;;;;3.28;2.85;;;19.10;99.90;;;;;;5032909;28;20034;-75
2023/07/23 11:00:52;;;;;;;4.50;3.08;;;19.20;99.90;;;;;;5041258;28;20083;-75
2023/07/23 11:03:20;;;;;;;5.38;3.22;;;19.30;99.90;;;;;;5032617;28;20021;-75
2023/07/23 11:05:47;;;;;;;4.38;2.90;;;19.30;99.90;;;;;;5046489;28;20036;-76
2023/07/23 11:08:20;;;;;;;3.30;2.85;;;19.40;99.90;;;;;;5052390;28;20025;-75
2023/07/23 11:11:00;;;;;;;3.63;3.05;;;19.50;99.90;;;;;;5051511;28;20025;-77
2023/07/23 11:13:30;;;;;;;4.82;3.60;;;19.50;99.90;;;;;;5041025;28;20017;-77
2023/07/23 11:15:56;;;;;;;3.40;3.10;;;19.50;99.90;;;;;;5042568;28;20024;-75
2023/07/23 11:18:23;;;;;;;4.07;3.20;;;19.50;99.90;;;;;;5042149;28;20386;-76
2023/07/23 11:20:51;;;;;;;4.35;3.95;;;19.60;99.90;;;;;;5041177;28;20469;-76
2023/07/23 11:23:19;;;;;;;3.67;3.10;;;19.60;99.90;;;;;;5042963;28;20112;-76
2023/07/23 11:25:45;;;;;;;4.20;3.70;;;19.60;99.90;;;;;;5040491;28;20017;-77
2023/07/23 11:28:11;;;;;;;4.75;3.60;;;19.80;99.90;;;;;;5042945;28;20029;-76
2023/07/23 11:30:37;;;;;;;7.93;4.05;;;19.80;99.90;;;;;;5042919;28;20075;-77
2023/07/23 11:33:03;;;;;;;4.07;3.67;;;19.90;99.90;;;;;;5052999;28;20358;-78
2023/07/23 11:35:30;;;;;;;4.22;3.83;;;19.80;99.90;;;;;;5052560;28;20499;-77
2023/07/23 11:38:01;;;;;;;6.03;4.20;;;19.80;99.90;;;;;;5052133;28;20131;-77
2023/07/23 11:40:27;;;;;;;5.22;4.10;;;19.90;99.90;;;;;;5052201;28;20070;-77
2023/07/23 11:42:53;;;;;;;4.60;4.05;;;19.90;99.90;;;;;;5051893;28;20037;-78
2023/07/23 11:45:19;;;;;;;4.80;3.72;;;19.90;99.90;;;;;;5052655;28;20021;-77
2023/07/23 11:47:51;;;;;;;3.95;3.60;;;20.10;99.90;;;;;;5051584;28;20413;-77
2023/07/23 11:50:18;;;;;;;5.05;4.03;;;20.10;99.90;;;;;;5051526;28;20021;-78
2023/07/23 11:52:47;;;;;;;4.72;4.30;;;20.20;99.90;;;;;;5052584;28;20025;-74
2023/07/23 11:55:26;;;;;;;4.40;4.00;;;20.30;99.90;;;;;;5052061;28;20098;-77
2023/07/23 11:57:57;;;;;;;4.40;4.00;;;20.40;99.90;;;;;;5050411;28;20029;-78
2023/07/23 12:00:27;;;;;;;3.97;3.63;;;20.60;99.90;;;;;;5051078;28;20074;-77
2023/07/23 12:02:53;;;;;;;4.32;3.97;;;20.70;99.90;;;;;;5051811;28;20021;-79
2023/07/23 12:05:19;;;;;;;4.75;3.97;;;20.70;99.90;;;;;;5043760;28;20500;-77
2023/07/23 12:07:45;;;;;;;6.40;3.63;;;20.60;99.90;;;;;;5051426;28;20029;-77
2023/07/23 12:10:15;;;;;;;4.93;4.15;;;20.70;99.90;;;;;;5051035;28;20032;-77
2023/07/23 12:12:50;;;;;;;6.82;4.57;;;20.70;99.90;;;;;;5051822;28;20037;-77
2023/07/23 12:15:16;;;;;;;4.10;3.70;;;20.80;99.90;;;;;;5032134;28;20057;-78
2023/07/23 12:17:43;;;;;;;6.30;4.38;;;21.00;99.90;;;;;;5031450;28;20029;-79
2023/07/23 12:20:15;;;;;;;4.35;3.95;;;21.10;99.90;;;;;;5030263;28;20076;-79
2023/07/23 12:22:51;;;;;;;6.53;3.92;;;21.30;99.90;;;;;;5039306;28;20032;-78
2023/07/23 12:25:17;;;;;;;4.07;3.78;;;21.40;99.90;;;;;;5051310;28;20029;-78
2023/07/23 12:27:43;;;;;;;4.97;4.35;;;21.60;99.90;;;;;;5051120;28;20108;-77
2023/07/23 12:30:09;;;;;;;6.18;4.03;;;21.80;99.90;;;;;;5048175;28;20448;-77
2023/07/23 12:32:34;;;;;;;4.60;4.15;;;21.80;99.90;;;;;;5050556;28;20025;-79
2023/07/23 12:35:01;;;;;;;4.93;4.53;;;21.80;99.90;;;;;;5047475;28;20094;-77
2023/07/23 12:37:27;;;;;;;4.30;3.90;;;21.60;99.90;;;;;;5051612;28;20060;-77
2023/07/23 12:39:55;;;;;;;5.13;4.65;;;21.70;99.90;;;;;;5043922;28;20051;-76
2023/07/23 12:42:21;;;;;;;4.15;3.75;;;21.50;99.90;;;;;;5044123;28;20106;-75
2023/07/23 12:44:47;;;;;;;4.80;4.40;;;21.40;99.90;;;;;;5042988;28;20031;-76
2023/07/23 12:47:13;;;;;;;4.97;4.22;;;21.40;99.90;;;;;;5040913;28;20029;-76